<?xml version='1.0' encoding='UTF-8'?><gpx version="1.1" creator="JPX - https://github.com/jenetics/jpx" xmlns="http://www.topografix.com/GPX/1/1"><trk><trkseg><trkpt lat="41.8641967" lon="12.66804"><ele>92.66666666666666</ele><time>2026-03-26T03:37:30.844Z</time></trkpt><trkpt lat="41.86421" lon="12.6677133"><ele>91.33333333333333</ele><time>2026-03-26T03:37:32.844Z</time></trkpt><trkpt lat="41.8642117" lon="12.6675333"><ele>90.0</ele><time>2026-03-26T03:37:33.843Z</time></trkpt><trkpt lat="41.8642133" lon="12.6673467"><ele>90.0</ele><time>2026-03-26T03:37:34.844Z</time></trkpt><trkpt lat="41.86421" lon="12.6671533"><ele>90.0</ele><time>2026-03-26T03:37:35.845Z</time></trkpt><trkpt lat="41.864205" lon="12.6669583"><ele>90.0</ele><time>2026-03-26T03:37:36.844Z</time></trkpt><trkpt lat="41.8641983" lon="12.6667633"><ele>90.0</ele><time>2026-03-26T03:37:37.843Z</time></trkpt><trkpt lat="41.86419" lon="12.6665633"><ele>89.0</ele><time>2026-03-26T03:37:38.844Z</time></trkpt><trkpt lat="41.8641867" lon="12.666355"><ele>88.0</ele><time>2026-03-26T03:37:39.843Z</time></trkpt><trkpt lat="41.864185" lon="12.6661483"><ele>87.0</ele><time>2026-03-26T03:37:40.845Z</time></trkpt><trkpt lat="41.8641917" lon="12.6659433"><ele>87.0</ele><time>2026-03-26T03:37:41.844Z</time></trkpt><trkpt lat="41.86422" lon="12.665525"><ele>87.0</ele><time>2026-03-26T03:37:43.846Z</time></trkpt><trkpt lat="41.86424" lon="12.6653083"><ele>86.66666666666667</ele><time>2026-03-26T03:37:44.845Z</time></trkpt><trkpt lat="41.8642617" lon="12.665095"><ele>86.33333333333334</ele><time>2026-03-26T03:37:45.845Z</time></trkpt><trkpt lat="41.864285" lon="12.6648883"><ele>86.0</ele><time>2026-03-26T03:37:46.844Z</time></trkpt><trkpt lat="41.8643117" lon="12.664685"><ele>85.66666666666667</ele><time>2026-03-26T03:37:47.845Z</time></trkpt><trkpt lat="41.86434" lon="12.6644767"><ele>85.33333333333333</ele><time>2026-03-26T03:37:48.843Z</time></trkpt><trkpt lat="41.864365" lon="12.6642683"><ele>85.0</ele><time>2026-03-26T03:37:49.844Z</time></trkpt><trkpt lat="41.86439" lon="12.6640567"><ele>85.0</ele><time>2026-03-26T03:37:50.845Z</time></trkpt><trkpt lat="41.8644133" lon="12.6638417"><ele>85.0</ele><time>2026-03-26T03:37:51.845Z</time></trkpt><trkpt lat="41.864435" lon="12.6636233"><ele>85.0</ele><time>2026-03-26T03:37:52.844Z</time></trkpt><trkpt lat="41.8644483" lon="12.6634"><ele>84.66666666666666</ele><time>2026-03-26T03:37:53.844Z</time></trkpt><trkpt lat="41.864455" lon="12.6631767"><ele>84.33333333333333</ele><time>2026-03-26T03:37:54.848Z</time></trkpt><trkpt lat="41.864455" lon="12.662945"><ele>84.0</ele><time>2026-03-26T03:37:55.845Z</time></trkpt><trkpt lat="41.86445" lon="12.66271"><ele>83.66666666666667</ele><time>2026-03-26T03:37:56.846Z</time></trkpt><trkpt lat="41.8644417" lon="12.6624817"><ele>83.33333333333334</ele><time>2026-03-26T03:37:57.843Z</time></trkpt><trkpt lat="41.864435" lon="12.6622517"><ele>83.0</ele><time>2026-03-26T03:37:58.844Z</time></trkpt><trkpt lat="41.8644283" lon="12.662035"><ele>83.33333333333334</ele><time>2026-03-26T03:37:59.845Z</time></trkpt><trkpt lat="41.8644267" lon="12.6618183"><ele>83.66666666666667</ele><time>2026-03-26T03:38:00.843Z</time></trkpt><trkpt lat="41.8644283" lon="12.6616"><ele>84.0</ele><time>2026-03-26T03:38:01.845Z</time></trkpt><trkpt lat="41.8644333" lon="12.6613817"><ele>84.0</ele><time>2026-03-26T03:38:02.845Z</time></trkpt><trkpt lat="41.86444" lon="12.6611567"><ele>84.0</ele><time>2026-03-26T03:38:03.845Z</time></trkpt><trkpt lat="41.86445" lon="12.6609333"><ele>84.0</ele><time>2026-03-26T03:38:04.844Z</time></trkpt><trkpt lat="41.864465" lon="12.6607083"><ele>83.33333333333333</ele><time>2026-03-26T03:38:05.845Z</time></trkpt><trkpt lat="41.8644817" lon="12.6604883"><ele>82.66666666666666</ele><time>2026-03-26T03:38:06.846Z</time></trkpt><trkpt lat="41.8644983" lon="12.66027"><ele>82.0</ele><time>2026-03-26T03:38:07.845Z</time></trkpt><trkpt lat="41.864515" lon="12.66005"><ele>81.66666666666666</ele><time>2026-03-26T03:38:08.846Z</time></trkpt><trkpt lat="41.86453" lon="12.6598333"><ele>81.33333333333333</ele><time>2026-03-26T03:38:09.844Z</time></trkpt><trkpt lat="41.864545" lon="12.65962"><ele>81.0</ele><time>2026-03-26T03:38:10.843Z</time></trkpt><trkpt lat="41.8645533" lon="12.659405"><ele>83.0</ele><time>2026-03-26T03:38:11.846Z</time></trkpt><trkpt lat="41.8645583" lon="12.65918"><ele>85.0</ele><time>2026-03-26T03:38:12.845Z</time></trkpt><trkpt lat="41.8645667" lon="12.6589533"><ele>87.0</ele><time>2026-03-26T03:38:13.847Z</time></trkpt><trkpt lat="41.8645717" lon="12.6587183"><ele>86.33333333333333</ele><time>2026-03-26T03:38:14.845Z</time></trkpt><trkpt lat="41.8645733" lon="12.65848"><ele>85.66666666666666</ele><time>2026-03-26T03:38:15.844Z</time></trkpt><trkpt lat="41.8645667" lon="12.65824"><ele>85.0</ele><time>2026-03-26T03:38:16.844Z</time></trkpt><trkpt lat="41.864555" lon="12.6580033"><ele>85.33333333333333</ele><time>2026-03-26T03:38:17.846Z</time></trkpt><trkpt lat="41.86454" lon="12.6577667"><ele>85.66666666666667</ele><time>2026-03-26T03:38:18.849Z</time></trkpt><trkpt lat="41.86453" lon="12.6575267"><ele>86.0</ele><time>2026-03-26T03:38:19.845Z</time></trkpt><trkpt lat="41.864515" lon="12.6572833"><ele>86.0</ele><time>2026-03-26T03:38:20.846Z</time></trkpt><trkpt lat="41.864495" lon="12.6570333"><ele>86.0</ele><time>2026-03-26T03:38:21.845Z</time></trkpt><trkpt lat="41.864475" lon="12.656785"><ele>86.0</ele><time>2026-03-26T03:38:22.845Z</time></trkpt><trkpt lat="41.864455" lon="12.6565417"><ele>86.33333333333334</ele><time>2026-03-26T03:38:23.845Z</time></trkpt><trkpt lat="41.8644417" lon="12.6563033"><ele>86.66666666666667</ele><time>2026-03-26T03:38:24.844Z</time></trkpt><trkpt lat="41.86443" lon="12.6560633"><ele>87.0</ele><time>2026-03-26T03:38:25.845Z</time></trkpt><trkpt lat="41.8644183" lon="12.6558183"><ele>85.33333333333333</ele><time>2026-03-26T03:38:26.846Z</time></trkpt><trkpt lat="41.8644033" lon="12.6555733"><ele>83.66666666666666</ele><time>2026-03-26T03:38:27.846Z</time></trkpt><trkpt lat="41.8643883" lon="12.6553283"><ele>82.0</ele><time>2026-03-26T03:38:28.843Z</time></trkpt><trkpt lat="41.8643717" lon="12.6550867"><ele>81.33333333333333</ele><time>2026-03-26T03:38:29.844Z</time></trkpt><trkpt lat="41.86435" lon="12.654845"><ele>80.66666666666667</ele><time>2026-03-26T03:38:30.844Z</time></trkpt><trkpt lat="41.8643217" lon="12.6546033"><ele>80.0</ele><time>2026-03-26T03:38:31.846Z</time></trkpt><trkpt lat="41.8642867" lon="12.6543667"><ele>78.66666666666667</ele><time>2026-03-26T03:38:32.844Z</time></trkpt><trkpt lat="41.8642483" lon="12.6541367"><ele>77.33333333333333</ele><time>2026-03-26T03:38:33.844Z</time></trkpt><trkpt lat="41.8642017" lon="12.65391"><ele>76.0</ele><time>2026-03-26T03:38:34.844Z</time></trkpt><trkpt lat="41.864155" lon="12.6536867"><ele>76.0</ele><time>2026-03-26T03:38:35.844Z</time></trkpt><trkpt lat="41.8641083" lon="12.6534633"><ele>76.0</ele><time>2026-03-26T03:38:36.845Z</time></trkpt><trkpt lat="41.8640617" lon="12.6532383"><ele>76.0</ele><time>2026-03-26T03:38:37.844Z</time></trkpt><trkpt lat="41.8640167" lon="12.65302"><ele>76.0</ele><time>2026-03-26T03:38:38.845Z</time></trkpt><trkpt lat="41.86397" lon="12.6528067"><ele>76.0</ele><time>2026-03-26T03:38:39.844Z</time></trkpt><trkpt lat="41.8638833" lon="12.6523967"><ele>76.0</ele><time>2026-03-26T03:38:41.843Z</time></trkpt><trkpt lat="41.863835" lon="12.6521933"><ele>76.0</ele><time>2026-03-26T03:38:42.845Z</time></trkpt><trkpt lat="41.863785" lon="12.651995"><ele>76.0</ele><time>2026-03-26T03:38:43.844Z</time></trkpt><trkpt lat="41.8637333" lon="12.6518083"><ele>76.33333333333333</ele><time>2026-03-26T03:38:44.844Z</time></trkpt><trkpt lat="41.8636733" lon="12.6516167"><ele>76.66666666666667</ele><time>2026-03-26T03:38:45.845Z</time></trkpt><trkpt lat="41.8636083" lon="12.6514283"><ele>77.0</ele><time>2026-03-26T03:38:46.843Z</time></trkpt><trkpt lat="41.8635367" lon="12.6512383"><ele>76.66666666666667</ele><time>2026-03-26T03:38:47.845Z</time></trkpt><trkpt lat="41.8634633" lon="12.6510433"><ele>76.33333333333333</ele><time>2026-03-26T03:38:48.845Z</time></trkpt><trkpt lat="41.8633867" lon="12.6508467"><ele>76.0</ele><time>2026-03-26T03:38:49.844Z</time></trkpt><trkpt lat="41.8633083" lon="12.65065"><ele>77.33333333333333</ele><time>2026-03-26T03:38:50.844Z</time></trkpt><trkpt lat="41.863235" lon="12.6504567"><ele>78.66666666666667</ele><time>2026-03-26T03:38:51.845Z</time></trkpt><trkpt lat="41.86316" lon="12.650265"><ele>80.0</ele><time>2026-03-26T03:38:52.844Z</time></trkpt><trkpt lat="41.863085" lon="12.6500767"><ele>81.33333333333334</ele><time>2026-03-26T03:38:53.843Z</time></trkpt><trkpt lat="41.8630117" lon="12.6498917"><ele>82.66666666666667</ele><time>2026-03-26T03:38:54.845Z</time></trkpt><trkpt lat="41.8629433" lon="12.6497133"><ele>84.0</ele><time>2026-03-26T03:38:55.846Z</time></trkpt><trkpt lat="41.8628733" lon="12.64954"><ele>85.0</ele><time>2026-03-26T03:38:56.845Z</time></trkpt><trkpt lat="41.8628083" lon="12.6493683"><ele>86.0</ele><time>2026-03-26T03:38:57.845Z</time></trkpt><trkpt lat="41.8627517" lon="12.6491983"><ele>87.0</ele><time>2026-03-26T03:38:58.844Z</time></trkpt><trkpt lat="41.8627" lon="12.6490267"><ele>88.0</ele><time>2026-03-26T03:38:59.843Z</time></trkpt><trkpt lat="41.8626533" lon="12.6488583"><ele>87.25</ele><time>2026-03-26T03:39:00.845Z</time></trkpt><trkpt lat="41.86261" lon="12.64869"><ele>86.5</ele><time>2026-03-26T03:39:01.846Z</time></trkpt><trkpt lat="41.8625667" lon="12.64852"><ele>85.75</ele><time>2026-03-26T03:39:02.851Z</time></trkpt><trkpt lat="41.8625267" lon="12.6483583"><ele>85.0</ele><time>2026-03-26T03:39:03.845Z</time></trkpt><trkpt lat="41.8624883" lon="12.6482033"><ele>84.5</ele><time>2026-03-26T03:39:04.844Z</time></trkpt><trkpt lat="41.8624533" lon="12.64805"><ele>84.0</ele><time>2026-03-26T03:39:05.844Z</time></trkpt><trkpt lat="41.8624183" lon="12.6478983"><ele>83.5</ele><time>2026-03-26T03:39:06.844Z</time></trkpt><trkpt lat="41.8623883" lon="12.6477433"><ele>83.0</ele><time>2026-03-26T03:39:07.845Z</time></trkpt><trkpt lat="41.862365" lon="12.6475917"><ele>82.75</ele><time>2026-03-26T03:39:08.845Z</time></trkpt><trkpt lat="41.8623533" lon="12.64744"><ele>82.5</ele><time>2026-03-26T03:39:09.843Z</time></trkpt><trkpt lat="41.8623533" lon="12.6472917"><ele>82.25</ele><time>2026-03-26T03:39:10.844Z</time></trkpt><trkpt lat="41.8623583" lon="12.6471383"><ele>82.0</ele><time>2026-03-26T03:39:11.844Z</time></trkpt><trkpt lat="41.862365" lon="12.6469867"><ele>81.75</ele><time>2026-03-26T03:39:12.846Z</time></trkpt><trkpt lat="41.8623717" lon="12.6468333"><ele>81.5</ele><time>2026-03-26T03:39:13.843Z</time></trkpt><trkpt lat="41.8623783" lon="12.6466717"><ele>81.25</ele><time>2026-03-26T03:39:14.843Z</time></trkpt><trkpt lat="41.862385" lon="12.6465083"><ele>81.0</ele><time>2026-03-26T03:39:15.844Z</time></trkpt><trkpt lat="41.86239" lon="12.646335"><ele>81.0</ele><time>2026-03-26T03:39:16.844Z</time></trkpt><trkpt lat="41.862395" lon="12.6461533"><ele>81.0</ele><time>2026-03-26T03:39:17.844Z</time></trkpt><trkpt lat="41.8624" lon="12.6459633"><ele>81.0</ele><time>2026-03-26T03:39:18.845Z</time></trkpt><trkpt lat="41.8624067" lon="12.6457567"><ele>81.0</ele><time>2026-03-26T03:39:19.845Z</time></trkpt><trkpt lat="41.86241" lon="12.6455383"><ele>80.66666666666667</ele><time>2026-03-26T03:39:20.845Z</time></trkpt><trkpt lat="41.862405" lon="12.645305"><ele>80.33333333333334</ele><time>2026-03-26T03:39:21.845Z</time></trkpt><trkpt lat="41.8623983" lon="12.645065"><ele>80.0</ele><time>2026-03-26T03:39:22.844Z</time></trkpt><trkpt lat="41.8623867" lon="12.6448233"><ele>79.33333333333334</ele><time>2026-03-26T03:39:23.845Z</time></trkpt><trkpt lat="41.8623717" lon="12.6445867"><ele>78.66666666666667</ele><time>2026-03-26T03:39:24.845Z</time></trkpt><trkpt lat="41.8623633" lon="12.6443567"><ele>78.0</ele><time>2026-03-26T03:39:25.845Z</time></trkpt><trkpt lat="41.862365" lon="12.64413"><ele>78.0</ele><time>2026-03-26T03:39:26.844Z</time></trkpt><trkpt lat="41.8623683" lon="12.6438983"><ele>78.0</ele><time>2026-03-26T03:39:27.844Z</time></trkpt><trkpt lat="41.8623833" lon="12.64367"><ele>78.0</ele><time>2026-03-26T03:39:28.844Z</time></trkpt><trkpt lat="41.862415" lon="12.64344"><ele>77.0</ele><time>2026-03-26T03:39:29.845Z</time></trkpt><trkpt lat="41.862465" lon="12.6432083"><ele>76.0</ele><time>2026-03-26T03:39:30.844Z</time></trkpt><trkpt lat="41.86253" lon="12.6429767"><ele>75.0</ele><time>2026-03-26T03:39:31.844Z</time></trkpt><trkpt lat="41.862595" lon="12.6427533"><ele>75.33333333333333</ele><time>2026-03-26T03:39:32.845Z</time></trkpt><trkpt lat="41.86266" lon="12.642535"><ele>75.66666666666666</ele><time>2026-03-26T03:39:33.845Z</time></trkpt><trkpt lat="41.8627183" lon="12.64232"><ele>76.0</ele><time>2026-03-26T03:39:34.844Z</time></trkpt><trkpt lat="41.8627767" lon="12.6421033"><ele>74.66666666666666</ele><time>2026-03-26T03:39:35.843Z</time></trkpt><trkpt lat="41.86283" lon="12.641885"><ele>73.33333333333333</ele><time>2026-03-26T03:39:36.845Z</time></trkpt><trkpt lat="41.8628733" lon="12.6416667"><ele>72.0</ele><time>2026-03-26T03:39:37.845Z</time></trkpt><trkpt lat="41.8629167" lon="12.6414517"><ele>72.0</ele><time>2026-03-26T03:39:38.845Z</time></trkpt><trkpt lat="41.8629517" lon="12.6412333"><ele>72.0</ele><time>2026-03-26T03:39:39.845Z</time></trkpt><trkpt lat="41.8629867" lon="12.6410083"><ele>72.0</ele><time>2026-03-26T03:39:40.845Z</time></trkpt><trkpt lat="41.863015" lon="12.6407917"><ele>71.66666666666667</ele><time>2026-03-26T03:39:41.844Z</time></trkpt><trkpt lat="41.863045" lon="12.6405767"><ele>71.33333333333334</ele><time>2026-03-26T03:39:42.844Z</time></trkpt><trkpt lat="41.8630717" lon="12.64036"><ele>71.0</ele><time>2026-03-26T03:39:43.843Z</time></trkpt><trkpt lat="41.8630983" lon="12.640145"><ele>71.0</ele><time>2026-03-26T03:39:44.845Z</time></trkpt><trkpt lat="41.8631283" lon="12.63993"><ele>71.0</ele><time>2026-03-26T03:39:45.846Z</time></trkpt><trkpt lat="41.863165" lon="12.639715"><ele>71.0</ele><time>2026-03-26T03:39:46.845Z</time></trkpt><trkpt lat="41.86321" lon="12.6395017"><ele>71.0</ele><time>2026-03-26T03:39:47.845Z</time></trkpt><trkpt lat="41.8632633" lon="12.6392883"><ele>71.0</ele><time>2026-03-26T03:39:48.845Z</time></trkpt><trkpt lat="41.86333" lon="12.6390733"><ele>71.0</ele><time>2026-03-26T03:39:49.844Z</time></trkpt><trkpt lat="41.8634017" lon="12.638865"><ele>69.66666666666667</ele><time>2026-03-26T03:39:50.845Z</time></trkpt><trkpt lat="41.863475" lon="12.6386583"><ele>68.33333333333333</ele><time>2026-03-26T03:39:51.846Z</time></trkpt><trkpt lat="41.8635417" lon="12.6384483"><ele>67.0</ele><time>2026-03-26T03:39:52.845Z</time></trkpt><trkpt lat="41.8636067" lon="12.6382333"><ele>66.66666666666666</ele><time>2026-03-26T03:39:53.845Z</time></trkpt><trkpt lat="41.8636633" lon="12.6380083"><ele>66.33333333333333</ele><time>2026-03-26T03:39:54.846Z</time></trkpt><trkpt lat="41.8637133" lon="12.637785"><ele>66.0</ele><time>2026-03-26T03:39:55.844Z</time></trkpt><trkpt lat="41.863755" lon="12.637555"><ele>65.66666666666667</ele><time>2026-03-26T03:39:56.845Z</time></trkpt><trkpt lat="41.86379" lon="12.6373167"><ele>65.33333333333334</ele><time>2026-03-26T03:39:57.847Z</time></trkpt><trkpt lat="41.86382" lon="12.63707"><ele>65.0</ele><time>2026-03-26T03:39:58.845Z</time></trkpt><trkpt lat="41.8638417" lon="12.6368183"><ele>66.0</ele><time>2026-03-26T03:39:59.844Z</time></trkpt><trkpt lat="41.863855" lon="12.636565"><ele>67.0</ele><time>2026-03-26T03:40:00.847Z</time></trkpt><trkpt lat="41.8638667" lon="12.63631"><ele>68.0</ele><time>2026-03-26T03:40:01.847Z</time></trkpt><trkpt lat="41.8638783" lon="12.6360583"><ele>68.33333333333334</ele><time>2026-03-26T03:40:02.85Z</time></trkpt><trkpt lat="41.86388" lon="12.6358017"><ele>68.66666666666667</ele><time>2026-03-26T03:40:03.844Z</time></trkpt><trkpt lat="41.86387" lon="12.63555"><ele>69.0</ele><time>2026-03-26T03:40:04.845Z</time></trkpt><trkpt lat="41.8638433" lon="12.635305"><ele>69.66666666666667</ele><time>2026-03-26T03:40:05.845Z</time></trkpt><trkpt lat="41.8638017" lon="12.63507"><ele>70.33333333333334</ele><time>2026-03-26T03:40:06.844Z</time></trkpt><trkpt lat="41.8637517" lon="12.6348383"><ele>71.0</ele><time>2026-03-26T03:40:07.844Z</time></trkpt><trkpt lat="41.8636933" lon="12.6346083"><ele>71.66666666666667</ele><time>2026-03-26T03:40:08.846Z</time></trkpt><trkpt lat="41.8636317" lon="12.6343783"><ele>72.33333333333333</ele><time>2026-03-26T03:40:09.847Z</time></trkpt><trkpt lat="41.8635667" lon="12.6341583"><ele>73.0</ele><time>2026-03-26T03:40:10.844Z</time></trkpt><trkpt lat="41.8635033" lon="12.63395"><ele>73.0</ele><time>2026-03-26T03:40:11.846Z</time></trkpt><trkpt lat="41.8634517" lon="12.633745"><ele>73.0</ele><time>2026-03-26T03:40:12.845Z</time></trkpt><trkpt lat="41.863405" lon="12.63355"><ele>73.0</ele><time>2026-03-26T03:40:13.846Z</time></trkpt><trkpt lat="41.8633633" lon="12.63338"><ele>73.0</ele><time>2026-03-26T03:40:14.845Z</time></trkpt><trkpt lat="41.86333" lon="12.6332283"><ele>72.0</ele><time>2026-03-26T03:40:15.846Z</time></trkpt><trkpt lat="41.8633017" lon="12.6330983"><ele>72.0</ele><time>2026-03-26T03:40:16.843Z</time></trkpt><trkpt lat="41.8632817" lon="12.6329867"><ele>72.0</ele><time>2026-03-26T03:40:17.846Z</time></trkpt><trkpt lat="41.8632633" lon="12.6328867"><ele>72.0</ele><time>2026-03-26T03:40:18.846Z</time></trkpt><trkpt lat="41.863245" lon="12.6327983"><ele>71.0</ele><time>2026-03-26T03:40:19.846Z</time></trkpt><trkpt lat="41.8632217" lon="12.6326517"><ele>71.0</ele><time>2026-03-26T03:40:21.847Z</time></trkpt></trkseg></trk></gpx>